createdAt,value
2018-11-05T00:00:28.402Z,4.30
2018-11-05T00:02:56.937Z,4.40
2018-11-05T00:05:26.055Z,4.40
2018-11-05T00:07:54.493Z,4.40
2018-11-05T00:10:22.925Z,4.40
2018-11-05T00:12:51.389Z,4.40
2018-11-05T00:15:19.827Z,4.50
2018-11-05T00:17:48.285Z,4.50
2018-11-05T00:20:16.726Z,4.60
2018-11-05T00:22:45.156Z,4.60
2018-11-05T00:25:14.107Z,4.50
2018-11-05T00:27:42.873Z,4.50
2018-11-05T00:30:12.892Z,4.40
2018-11-05T00:32:41.802Z,4.20
2018-11-05T00:35:10.301Z,4.10
2018-11-05T00:37:38.780Z,4.10
2018-11-05T00:40:10.322Z,4.10
2018-11-05T00:42:38.793Z,4.00
2018-11-05T00:45:08.376Z,4.00
2018-11-05T00:47:36.873Z,4.10
2018-11-05T00:50:07.823Z,4.00
2018-11-05T00:52:36.382Z,4.30
2018-11-05T00:55:04.901Z,4.30
2018-11-05T00:57:33.350Z,4.30
2018-11-05T01:00:01.898Z,4.20
2018-11-05T01:02:30.604Z,4.20
2018-11-05T01:04:59.318Z,4.20
2018-11-05T01:07:27.766Z,4.30
2018-11-05T01:09:56.235Z,4.20
2018-11-05T01:12:24.705Z,4.30
2018-11-05T01:14:53.417Z,4.30
2018-11-05T01:17:21.876Z,4.20
2018-11-05T01:19:50.290Z,4.30
2018-11-05T01:22:18.725Z,4.20
2018-11-05T01:24:47.188Z,4.30
2018-11-05T01:27:15.665Z,4.30
2018-11-05T01:29:44.141Z,4.20
2018-11-05T01:32:12.549Z,4.20
2018-11-05T01:34:40.986Z,4.20
2018-11-05T01:37:09.510Z,4.10
2018-11-05T01:39:37.873Z,4.00
2018-11-05T01:42:06.352Z,4.00
2018-11-05T01:44:34.782Z,4.00
2018-11-05T01:47:03.253Z,3.90
2018-11-05T01:49:31.687Z,3.90
2018-11-05T01:52:00.133Z,3.90
2018-11-05T01:54:28.818Z,4.00
2018-11-05T01:56:57.309Z,4.00
2018-11-05T01:59:26.061Z,4.00
2018-11-05T02:01:54.594Z,4.00
2018-11-05T02:04:23.040Z,4.00
2018-11-05T02:06:51.496Z,4.10
2018-11-05T02:09:19.938Z,4.10
2018-11-05T02:11:48.366Z,4.10
2018-11-05T02:14:16.804Z,4.20
2018-11-05T02:16:45.258Z,4.20
2018-11-05T02:19:13.713Z,4.20
2018-11-05T02:21:42.165Z,4.10
2018-11-05T02:24:10.586Z,4.00
2018-11-05T02:26:39.056Z,4.00
2018-11-05T02:29:07.497Z,3.90
2018-11-05T02:31:35.933Z,3.90
2018-11-05T02:34:04.465Z,3.90
2018-11-05T02:36:32.879Z,3.90
2018-11-05T02:39:01.316Z,3.90
2018-11-05T02:41:29.732Z,4.00
2018-11-05T02:43:58.157Z,4.00
2018-11-05T02:46:26.584Z,4.00
2018-11-05T02:48:55.073Z,4.00
2018-11-05T02:51:23.525Z,4.10
2018-11-05T02:53:51.990Z,4.20
2018-11-05T02:56:20.449Z,4.20
2018-11-05T02:58:48.868Z,4.30
2018-11-05T03:01:17.314Z,4.30
2018-11-05T03:03:45.799Z,4.30
2018-11-05T03:06:14.258Z,4.30
2018-11-05T03:08:42.958Z,4.30
2018-11-05T03:11:11.424Z,4.30
2018-11-05T03:13:39.856Z,4.30
2018-11-05T03:16:08.285Z,4.30
2018-11-05T03:18:36.710Z,4.30
2018-11-05T03:21:05.225Z,4.30
2018-11-05T03:23:33.786Z,4.40
2018-11-05T03:26:02.257Z,4.40
2018-11-05T03:28:30.721Z,4.40
2018-11-05T03:30:59.194Z,4.50
2018-11-05T03:33:27.630Z,4.40
2018-11-05T03:35:56.164Z,4.40
2018-11-05T03:38:24.598Z,4.50
2018-11-05T03:40:53.045Z,4.50
2018-11-05T03:43:21.516Z,4.50
2018-11-05T03:45:49.982Z,4.50
2018-11-05T03:48:18.469Z,4.50
2018-11-05T03:50:46.943Z,4.60
2018-11-05T03:53:15.399Z,4.60
2018-11-05T03:55:43.941Z,4.60
2018-11-05T03:58:12.298Z,4.60
2018-11-05T04:00:40.730Z,5.00
2018-11-05T04:03:09.277Z,4.90
2018-11-05T04:05:37.723Z,4.80
2018-11-05T04:08:06.309Z,4.70
2018-11-05T04:10:34.759Z,4.70
2018-11-05T04:13:03.251Z,4.60
2018-11-05T04:15:31.745Z,4.50
2018-11-05T04:18:00.151Z,4.50
2018-11-05T04:20:28.610Z,4.50
2018-11-05T04:22:57.054Z,4.40
2018-11-05T04:25:25.516Z,4.40
2018-11-05T04:27:54.049Z,4.40
2018-11-05T04:30:22.427Z,4.30
2018-11-05T04:32:50.882Z,4.30
2018-11-05T04:35:19.320Z,4.20
2018-11-05T04:37:47.765Z,4.20
2018-11-05T04:40:16.218Z,4.40
2018-11-05T04:42:44.646Z,4.40
2018-11-05T04:45:13.773Z,4.20
2018-11-05T04:47:43.015Z,4.10
2018-11-05T04:50:12.505Z,4.00
2018-11-05T04:52:41.696Z,3.90
2018-11-05T04:55:10.167Z,3.80
2018-11-05T04:57:38.846Z,3.80
2018-11-05T05:00:11.078Z,3.80
2018-11-05T05:02:40.522Z,3.90
2018-11-05T05:05:09.486Z,3.90
2018-11-05T05:07:37.925Z,4.00
2018-11-05T05:10:07.162Z,4.00
2018-11-05T05:12:35.593Z,4.20
2018-11-05T05:15:04.201Z,4.20
2018-11-05T05:17:32.661Z,4.20
2018-11-05T05:20:01.108Z,4.20
2018-11-05T05:22:29.647Z,4.20
2018-11-05T05:24:58.230Z,4.30
2018-11-05T05:27:26.774Z,4.40
2018-11-05T05:29:55.216Z,4.30
2018-11-05T05:32:23.643Z,4.30
2018-11-05T05:34:52.096Z,4.20
2018-11-05T05:37:20.514Z,4.20
2018-11-05T05:39:48.959Z,4.20
2018-11-05T05:42:17.377Z,4.20
2018-11-05T05:44:45.845Z,4.20
2018-11-05T05:47:14.382Z,4.20
2018-11-05T05:49:42.817Z,4.20
2018-11-05T05:52:11.358Z,4.20
2018-11-05T05:54:39.810Z,4.20
2018-11-05T05:57:08.256Z,4.10
2018-11-05T05:59:36.681Z,4.10
2018-11-05T06:02:05.819Z,4.10
2018-11-05T06:04:34.272Z,4.00
2018-11-05T06:07:03.590Z,4.00
2018-11-05T06:09:32.004Z,4.00
2018-11-05T06:12:00.494Z,4.00
2018-11-05T06:14:28.950Z,4.00
2018-11-05T06:16:57.365Z,4.10
2018-11-05T06:19:26.034Z,4.10
2018-11-05T06:21:54.678Z,4.10
2018-11-05T06:24:23.080Z,4.10
2018-11-05T06:26:51.621Z,4.20
2018-11-05T06:29:20.893Z,4.20
2018-11-05T06:31:49.345Z,4.30
2018-11-05T06:34:17.768Z,4.30
2018-11-05T06:36:46.216Z,4.30
2018-11-05T06:39:14.681Z,4.40
2018-11-05T06:41:43.375Z,4.40
2018-11-05T06:44:11.866Z,4.40
2018-11-05T06:46:40.242Z,4.40
2018-11-05T06:49:08.753Z,4.40
2018-11-05T06:51:37.205Z,4.40
2018-11-05T06:54:07.673Z,4.40
2018-11-05T06:56:36.155Z,4.50
2018-11-05T06:59:04.622Z,4.50
2018-11-05T07:01:33.073Z,4.50
2018-11-05T07:04:01.521Z,4.50
2018-11-05T07:06:30.006Z,4.60
2018-11-05T07:08:58.488Z,4.60
2018-11-05T07:11:27.054Z,4.60
2018-11-05T07:13:55.420Z,4.70
2018-11-05T07:16:23.973Z,4.60
2018-11-05T07:18:52.773Z,4.50
2018-11-05T07:21:20.985Z,4.60
2018-11-05T07:23:49.400Z,4.70
2018-11-05T07:26:17.870Z,4.80
2018-11-05T07:28:46.315Z,4.90
2018-11-05T07:31:14.854Z,5.00
2018-11-05T07:33:43.333Z,5.10
2018-11-05T07:36:11.828Z,5.40
2018-11-05T07:38:40.286Z,5.60
2018-11-05T07:41:08.781Z,5.60
2018-11-05T07:43:37.234Z,5.60
2018-11-05T07:46:06.249Z,5.70
2018-11-05T07:48:34.718Z,5.80
2018-11-05T07:51:03.169Z,5.90
2018-11-05T07:53:31.635Z,6.00
2018-11-05T07:56:00.124Z,6.20
2018-11-05T07:58:28.513Z,6.40
2018-11-05T08:00:58.066Z,6.40
2018-11-05T08:03:27.026Z,6.50
2018-11-05T08:06:01.989Z,6.50
2018-11-05T08:08:30.419Z,6.60
2018-11-05T08:10:58.869Z,6.50
2018-11-05T08:13:27.349Z,6.70
2018-11-05T08:15:55.816Z,6.70
2018-11-05T08:18:24.248Z,6.70
2018-11-05T08:20:52.682Z,6.70
2018-11-05T08:23:21.124Z,6.70
2018-11-05T08:25:49.581Z,6.80
2018-11-05T08:28:18.086Z,6.90
2018-11-05T08:30:46.555Z,6.90
2018-11-05T08:33:15.019Z,6.90
2018-11-05T08:35:43.464Z,7.00
2018-11-05T08:38:11.969Z,7.10
2018-11-05T08:40:40.388Z,7.10
2018-11-05T08:43:08.827Z,7.20
2018-11-05T08:45:37.277Z,7.20
2018-11-05T08:48:05.774Z,7.30
2018-11-05T08:50:34.310Z,7.40
2018-11-05T08:53:02.679Z,7.50
2018-11-05T08:55:31.135Z,7.60
2018-11-05T08:57:59.585Z,7.70
2018-11-05T09:00:33.267Z,7.80
2018-11-05T09:03:01.711Z,7.80
2018-11-05T09:05:30.164Z,7.90
2018-11-05T09:07:58.630Z,8.00
2018-11-05T09:10:27.210Z,8.10
2018-11-05T09:12:55.581Z,8.10
2018-11-05T09:15:24.076Z,8.20
2018-11-05T09:17:52.835Z,8.30
2018-11-05T09:20:21.305Z,8.30
2018-11-05T09:22:50.670Z,8.40
2018-11-05T09:25:19.160Z,8.50
2018-11-05T09:27:47.686Z,8.60
2018-11-05T09:30:20.547Z,8.70
2018-11-05T09:32:49.005Z,8.90
2018-11-05T09:35:17.588Z,8.90
2018-11-05T09:37:46.055Z,9.00
2018-11-05T09:40:18.628Z,9.10
2018-11-05T09:42:47.707Z,9.30
2018-11-05T09:45:18.482Z,9.40
2018-11-05T09:47:47.285Z,9.60
2018-11-05T09:50:16.129Z,9.80
2018-11-05T09:52:44.579Z,9.80
2018-11-05T09:55:13.780Z,10.00
2018-11-05T09:57:42.621Z,10.10
2018-11-05T10:00:14.701Z,10.20
2018-11-05T10:02:49.252Z,10.20
2018-11-05T10:05:17.951Z,10.30
2018-11-05T10:07:46.666Z,10.40
2018-11-05T10:10:15.851Z,10.50
2018-11-05T10:12:44.661Z,10.60
2018-11-05T10:15:14.156Z,10.70
2018-11-05T10:17:42.664Z,10.80
2018-11-05T10:20:17.778Z,10.70
2018-11-05T10:22:46.656Z,10.90
2018-11-05T10:25:15.702Z,10.90
2018-11-05T10:27:44.418Z,11.00
2018-11-05T10:30:22.302Z,11.00
2018-11-05T10:32:50.805Z,11.00
2018-11-05T10:35:19.543Z,11.00
2018-11-05T10:37:48.023Z,11.10
2018-11-05T10:40:18.319Z,11.20
2018-11-05T10:42:47.410Z,11.20
2018-11-05T10:45:16.993Z,11.20
2018-11-05T10:47:45.456Z,11.20
2018-11-05T10:50:15.618Z,11.30
2018-11-05T10:52:45.412Z,11.30
2018-11-05T10:55:13.913Z,11.40
2018-11-05T10:57:42.966Z,11.40
2018-11-05T11:01:20.091Z,11.50
2018-11-05T11:03:54.814Z,11.60
2018-11-05T11:06:23.254Z,11.70
2018-11-05T11:08:51.709Z,11.70
2018-11-05T11:11:20.138Z,11.70
2018-11-05T11:13:48.591Z,11.70
2018-11-05T11:16:17.036Z,11.70
2018-11-05T11:18:45.484Z,11.80
2018-11-05T11:21:13.921Z,11.80
2018-11-05T11:23:42.380Z,11.90
2018-11-05T11:26:10.862Z,12.00
2018-11-05T11:28:39.355Z,12.00
2018-11-05T11:31:07.770Z,12.00
2018-11-05T11:33:36.221Z,12.30
2018-11-05T11:36:04.718Z,12.30
2018-11-05T11:38:33.220Z,12.30
2018-11-05T11:41:01.669Z,12.20
2018-11-05T11:43:30.125Z,12.10
2018-11-05T11:45:58.611Z,12.10
2018-11-05T11:48:27.033Z,12.20
2018-11-05T11:50:55.502Z,12.20
2018-11-05T11:53:24.073Z,12.30
2018-11-05T11:55:52.441Z,12.40
2018-11-05T11:58:20.846Z,12.70
2018-11-05T12:00:49.289Z,12.70
2018-11-05T12:03:17.785Z,12.70
2018-11-05T12:05:46.209Z,12.70
2018-11-05T12:08:14.682Z,12.80
2018-11-05T12:10:43.158Z,13.00
2018-11-05T12:13:11.598Z,13.10
2018-11-05T12:15:40.049Z,13.20
2018-11-05T12:18:08.503Z,13.30
2018-11-05T12:20:36.946Z,13.50
2018-11-05T12:23:05.425Z,13.60
2018-11-05T12:25:33.929Z,13.50
2018-11-05T12:28:02.375Z,13.50
2018-11-05T12:30:30.840Z,13.50
2018-11-05T12:32:59.272Z,13.50
2018-11-05T12:35:27.754Z,13.60
2018-11-05T12:37:56.193Z,13.60
2018-11-05T12:40:24.670Z,13.60
2018-11-05T12:42:53.250Z,13.50
2018-11-05T12:45:21.719Z,13.60
2018-11-05T12:47:50.173Z,13.60
2018-11-05T12:50:20.502Z,13.60
2018-11-05T12:52:49.742Z,13.70
2018-11-05T12:55:18.221Z,13.60
2018-11-05T12:57:47.041Z,13.70
2018-11-05T13:00:17.617Z,13.70
2018-11-05T13:02:50.353Z,13.70
2018-11-05T13:05:18.851Z,13.70
2018-11-05T13:07:47.328Z,13.70
2018-11-05T13:10:15.788Z,13.80
2018-11-05T13:12:44.262Z,13.80
2018-11-05T13:15:12.801Z,13.70
2018-11-05T13:17:41.730Z,13.70
2018-11-05T13:20:13.680Z,13.70
2018-11-05T13:22:42.890Z,13.90
2018-11-05T13:25:11.589Z,14.00
2018-11-05T13:27:40.880Z,14.00
2018-11-05T13:30:10.162Z,14.00
2018-11-05T13:32:38.824Z,14.00
2018-11-05T13:35:08.581Z,14.00
2018-11-05T13:37:37.491Z,14.00
2018-11-05T13:40:06.262Z,13.90
2018-11-05T13:42:34.748Z,13.80
2018-11-05T13:45:03.260Z,13.80
2018-11-05T13:47:32.441Z,13.70
2018-11-05T13:50:00.369Z,13.70
2018-11-05T13:52:28.746Z,13.60
2018-11-05T13:54:57.520Z,13.50
2018-11-05T13:57:25.633Z,13.50
2018-11-05T13:59:54.093Z,13.40
2018-11-05T14:02:22.550Z,13.40
2018-11-05T14:04:51.152Z,13.40
2018-11-05T14:07:19.610Z,13.40
2018-11-05T14:09:48.080Z,13.40
2018-11-05T14:12:16.569Z,13.30
2018-11-05T14:14:45.127Z,13.30
2018-11-05T14:17:13.605Z,13.20
2018-11-05T14:19:42.053Z,13.20
2018-11-05T14:22:10.544Z,13.20
2018-11-05T14:24:39.002Z,13.20
2018-11-05T14:27:07.496Z,13.10
2018-11-05T14:29:36.361Z,13.10
2018-11-05T14:32:04.723Z,13.10
2018-11-05T14:34:33.142Z,13.10
2018-11-05T14:37:01.641Z,13.10
2018-11-05T14:39:30.117Z,13.00
2018-11-05T14:41:58.591Z,13.00
2018-11-05T14:44:27.046Z,13.00
2018-11-05T14:46:55.549Z,12.90
2018-11-05T14:49:24.541Z,12.90
2018-11-05T14:51:52.988Z,12.90
2018-11-05T14:54:21.449Z,12.90
2018-11-05T14:56:49.900Z,12.80
2018-11-05T14:59:18.364Z,12.80
2018-11-05T15:01:46.886Z,12.70
2018-11-05T15:04:15.885Z,12.60
2018-11-05T15:06:44.417Z,12.60
2018-11-05T15:09:13.536Z,12.60
2018-11-05T15:11:42.012Z,12.60
2018-11-05T15:14:10.511Z,12.50
2018-11-05T15:16:39.235Z,12.50
2018-11-05T15:19:07.923Z,12.40
2018-11-05T15:21:36.176Z,12.40
2018-11-05T15:24:04.818Z,12.40
2018-11-05T15:26:33.335Z,12.40
2018-11-05T15:29:01.782Z,12.40
2018-11-05T15:31:30.209Z,12.40
2018-11-05T15:33:58.702Z,12.30
2018-11-05T15:36:27.134Z,12.30
2018-11-05T15:38:55.591Z,12.30
2018-11-05T15:41:24.034Z,12.10
2018-11-05T15:43:52.621Z,12.10
2018-11-05T15:46:21.077Z,12.10
2018-11-05T15:48:49.578Z,12.00
2018-11-05T15:51:18.173Z,11.90
2018-11-05T15:53:46.555Z,11.80
2018-11-05T15:56:14.977Z,11.80
2018-11-05T15:58:43.435Z,11.80
2018-11-05T16:01:11.898Z,11.80
2018-11-05T16:03:40.426Z,11.80
2018-11-05T16:06:08.894Z,11.80
2018-11-05T16:08:37.342Z,11.80
2018-11-05T16:11:05.841Z,11.70
2018-11-05T16:13:34.285Z,11.60
2018-11-05T16:16:02.750Z,11.60
2018-11-05T16:18:31.199Z,11.50
2018-11-05T16:20:59.674Z,11.50
2018-11-05T16:23:28.125Z,11.50
2018-11-05T16:25:56.706Z,11.50
2018-11-05T16:28:25.061Z,11.40
2018-11-05T16:30:53.480Z,11.30
2018-11-05T16:33:21.967Z,11.30
2018-11-05T16:35:50.474Z,11.20
2018-11-05T16:38:18.949Z,11.20
2018-11-05T16:40:47.392Z,11.20
2018-11-05T16:43:15.807Z,11.10
2018-11-05T16:45:44.399Z,11.00
2018-11-05T16:48:12.829Z,11.00
2018-11-05T16:50:41.318Z,11.00
2018-11-05T16:53:09.733Z,11.00
2018-11-05T16:55:38.203Z,10.90
2018-11-05T16:58:06.764Z,10.80
2018-11-05T17:00:35.328Z,10.80
2018-11-05T17:03:03.759Z,10.80
2018-11-05T17:05:32.185Z,10.80
2018-11-05T17:08:00.621Z,10.80
2018-11-05T17:10:29.097Z,10.70
2018-11-05T17:12:57.546Z,10.70
2018-11-05T17:15:26.044Z,10.70
2018-11-05T17:17:54.553Z,10.70
2018-11-05T17:20:22.984Z,10.70
2018-11-05T17:22:51.441Z,10.60
2018-11-05T17:25:19.882Z,10.60
2018-11-05T17:27:48.728Z,10.50
2018-11-05T17:30:20.042Z,10.40
2018-11-05T17:32:48.568Z,10.40
2018-11-05T17:35:17.327Z,10.30
2018-11-05T17:37:46.321Z,10.30
2018-11-05T17:40:16.537Z,10.30
2018-11-05T17:42:44.933Z,10.20
2018-11-05T17:45:15.673Z,10.20
2018-11-05T17:47:44.460Z,10.20
2018-11-05T17:50:14.794Z,10.20
2018-11-05T17:52:43.557Z,10.20
2018-11-05T17:55:13.082Z,10.10
2018-11-05T17:57:42.487Z,10.10
2018-11-05T18:00:14.235Z,10.10
2018-11-05T18:02:42.725Z,10.10
2018-11-05T18:05:11.390Z,10.00
2018-11-05T18:07:39.823Z,10.00
2018-11-05T18:10:08.479Z,10.00
2018-11-05T18:12:37.002Z,9.90
2018-11-05T18:15:07.562Z,9.90
2018-11-05T18:17:36.109Z,9.90
2018-11-05T18:20:04.805Z,9.90
2018-11-05T18:22:33.309Z,9.80
2018-11-05T18:25:01.802Z,9.70
2018-11-05T18:27:30.266Z,9.70
2018-11-05T18:29:58.806Z,9.60
2018-11-05T18:32:27.254Z,9.60
2018-11-05T18:34:55.732Z,9.50
2018-11-05T18:37:24.167Z,9.40
2018-11-05T18:39:53.253Z,9.40
2018-11-05T18:42:21.723Z,9.30
2018-11-05T18:44:50.274Z,9.30
2018-11-05T18:47:18.746Z,9.20
2018-11-05T18:49:47.164Z,9.10
2018-11-05T18:52:15.706Z,9.10
2018-11-05T18:54:44.170Z,9.00
2018-11-05T18:57:12.956Z,9.00
2018-11-05T18:59:41.378Z,8.90
2018-11-05T19:02:09.906Z,8.90
2018-11-05T19:04:40.241Z,8.90
2018-11-05T19:07:08.753Z,8.90
2018-11-05T19:09:37.205Z,8.90
2018-11-05T19:12:05.902Z,8.90
2018-11-05T19:14:34.523Z,8.80
2018-11-05T19:17:03.611Z,8.90
2018-11-05T19:19:32.165Z,8.90
2018-11-05T19:22:00.622Z,8.90
2018-11-05T19:24:29.347Z,8.90
2018-11-05T19:26:57.530Z,8.80
2018-11-05T19:29:25.981Z,8.70
2018-11-05T19:31:54.405Z,8.70
2018-11-05T19:34:22.918Z,8.70
2018-11-05T19:36:51.397Z,8.70
2018-11-05T19:39:19.872Z,8.80
2018-11-05T19:41:48.323Z,8.70
2018-11-05T19:44:16.753Z,8.70
2018-11-05T19:46:45.318Z,8.70
2018-11-05T19:49:14.141Z,8.60
2018-11-05T19:51:42.606Z,8.60
2018-11-05T19:54:11.221Z,8.60
2018-11-05T19:56:39.745Z,8.70
2018-11-05T19:59:08.265Z,8.70
2018-11-05T20:01:36.741Z,8.80
2018-11-05T20:04:05.733Z,8.80
2018-11-05T20:06:34.196Z,8.70
2018-11-05T20:09:02.653Z,8.70
2018-11-05T20:11:31.134Z,8.60
2018-11-05T20:13:59.608Z,8.50
2018-11-05T20:16:28.057Z,8.50
2018-11-05T20:18:57.591Z,8.50
2018-11-05T20:21:26.049Z,8.40
2018-11-05T20:23:54.498Z,8.50
2018-11-05T20:26:22.929Z,8.40
2018-11-05T20:28:52.370Z,8.40
2018-11-05T20:31:20.941Z,8.40
2018-11-05T20:33:49.381Z,8.40
2018-11-05T20:36:17.761Z,8.30
2018-11-05T20:38:46.179Z,8.30
2018-11-05T20:41:14.899Z,8.30
2018-11-05T20:43:43.373Z,8.30
2018-11-05T20:46:11.840Z,8.20
2018-11-05T20:48:40.295Z,8.20
2018-11-05T20:51:08.740Z,8.20
2018-11-05T20:53:37.274Z,8.10
2018-11-05T20:56:05.768Z,8.20
2018-11-05T20:58:34.221Z,8.10
2018-11-05T21:01:02.739Z,8.10
2018-11-05T21:03:31.156Z,8.10
2018-11-05T21:05:59.689Z,8.10
2018-11-05T21:08:28.174Z,8.00
2018-11-05T21:10:56.636Z,8.00
2018-11-05T21:13:25.096Z,8.00
2018-11-05T21:15:53.547Z,7.90
2018-11-05T21:18:22.779Z,8.00
2018-11-05T21:20:52.187Z,7.90
2018-11-05T21:23:20.629Z,7.90
2018-11-05T21:25:49.073Z,7.80
2018-11-05T21:28:17.496Z,7.80
2018-11-05T21:30:45.906Z,7.80
2018-11-05T21:33:14.388Z,7.70
2018-11-05T21:35:42.792Z,7.70
2018-11-05T21:38:11.279Z,7.70
2018-11-05T21:40:39.797Z,7.70
2018-11-05T21:43:08.199Z,7.60
2018-11-05T21:45:36.707Z,7.70
2018-11-05T21:48:05.112Z,7.60
2018-11-05T21:50:33.561Z,7.60
2018-11-05T21:53:02.022Z,7.50
2018-11-05T21:55:30.471Z,7.50
2018-11-05T21:57:58.891Z,7.50
2018-11-05T22:00:27.358Z,7.40
2018-11-05T22:03:00.271Z,7.40
